Time;durP1;ratioP1;P1;durP2;ratioP2;P2;SDS_P1;SDS_P2;PMS_P1;PMS_P2;Temp;Humidity;BMP_temperature;BMP_pressure;BME280_temperature;BME280_humidity;BME280_pressure;Samples;Min_cycle;Max_cycle;Signal;HPM_P1;HPM_P2
2022/12/24 05:02:27;;;;;;;14.77;3.30;;;10.00;99.90;;;;;;5075602;23;20495;-74
2022/12/24 05:04:54;;;;;;;15.60;3.37;;;9.90;99.90;;;;;;4966638;28;20514;-74
2022/12/24 05:07:21;;;;;;;13.83;3.93;;;9.90;99.90;;;;;;4966194;28;20460;-74
2022/12/24 05:09:48;;;;;;;14.60;3.40;;;9.90;99.90;;;;;;4966922;28;20649;-74
2022/12/24 05:12:15;;;;;;;9.93;3.87;;;9.90;99.90;;;;;;4950130;28;20488;-74
2022/12/24 05:14:42;;;;;;;8.23;2.60;;;9.90;99.90;;;;;;4947238;29;20453;-74
2022/12/24 05:17:08;;;;;;;15.87;5.20;;;9.90;99.90;;;;;;4946926;29;20871;-74
2022/12/24 05:19:37;;;;;;;11.80;3.83;;;9.80;99.90;;;;;;4946556;28;20818;-74
2022/12/24 05:27:32;;;;;;;12.80;3.43;;;9.90;99.90;;;;;;4947063;29;20448;-74
2022/12/24 05:29:59;;;;;;;18.63;4.80;;;9.90;99.90;;;;;;4946808;29;20454;-74
2022/12/24 05:32:27;;;;;;;9.93;3.50;;;9.90;99.90;;;;;;4947354;28;20473;-74
2022/12/24 05:34:55;;;;;;;13.40;4.13;;;10.00;99.90;;;;;;4947647;29;20462;-74
2022/12/24 05:37:22;;;;;;;18.37;4.77;;;10.00;99.90;;;;;;4946856;29;20512;-74
2022/12/24 05:39:49;;;;;;;10.30;3.60;;;10.00;99.90;;;;;;4947665;29;20463;-75
2022/12/24 05:42:15;;;;;;;17.23;4.23;;;10.00;99.90;;;;;;4947373;28;20492;-74
2022/12/24 05:44:42;;;;;;;17.00;3.50;;;10.00;99.90;;;;;;4947599;29;20497;-74
2022/12/24 05:47:09;;;;;;;18.27;3.80;;;10.00;99.90;;;;;;4947017;29;20473;-75
2022/12/24 05:49:36;;;;;;;15.23;4.17;;;10.00;99.90;;;;;;4947142;29;20461;-74
2022/12/24 05:52:04;;;;;;;19.47;3.60;;;10.00;99.90;;;;;;4947322;28;20493;-74
2022/12/24 05:54:31;;;;;;;16.23;4.50;;;10.00;99.90;;;;;;4947296;28;20464;-75
2022/12/24 05:56:57;;;;;;;11.93;3.63;;;10.00;99.90;;;;;;4946726;28;20457;-74
2022/12/24 05:59:24;;;;;;;15.43;3.67;;;10.00;99.90;;;;;;4951573;29;20472;-74
2022/12/24 06:01:51;;;;;;;26.10;4.67;;;10.00;99.90;;;;;;4950940;28;20500;-74
2022/12/24 06:04:18;;;;;;;12.23;4.20;;;10.00;99.90;;;;;;4951239;29;20493;-74
2022/12/24 06:06:44;;;;;;;22.53;4.93;;;10.00;99.90;;;;;;4950382;29;20457;-74
2022/12/24 06:09:13;;;;;;;20.30;4.30;;;10.10;99.90;;;;;;4951139;29;20457;-74
2022/12/24 06:11:40;;;;;;;10.90;4.20;;;10.10;99.90;;;;;;4950835;28;20497;-74
2022/12/24 06:14:07;;;;;;;11.33;3.80;;;10.10;99.90;;;;;;4951056;28;20453;-75
2022/12/24 06:16:34;;;;;;;16.70;4.60;;;10.10;99.90;;;;;;4950227;29;20456;-74
2022/12/24 06:19:00;;;;;;;20.70;4.37;;;10.10;99.90;;;;;;4950712;29;21254;-74
2022/12/24 06:21:27;;;;;;;11.30;3.63;;;10.20;99.90;;;;;;4950766;28;20855;-74
2022/12/24 06:23:54;;;;;;;13.63;4.77;;;10.20;99.90;;;;;;4950474;28;20501;-74
2022/12/24 06:26:23;;;;;;;37.83;4.83;;;10.20;99.90;;;;;;4949712;29;20461;-74
2022/12/24 06:28:51;;;;;;;14.33;3.40;;;10.20;99.90;;;;;;4950512;29;21280;-74
2022/12/24 06:31:19;;;;;;;12.10;3.70;;;10.20;99.90;;;;;;4950762;28;20476;-74
2022/12/24 06:33:46;;;;;;;14.00;3.87;;;10.30;99.90;;;;;;4950570;29;20450;-74
2022/12/24 06:36:16;;;;;;;15.43;3.60;;;10.20;99.90;;;;;;4949867;29;20540;-74
2022/12/24 06:38:43;;;;;;;12.00;3.80;;;10.20;99.90;;;;;;4950497;29;20453;-74
2022/12/24 06:41:10;;;;;;;13.87;4.53;;;10.20;99.90;;;;;;4950218;28;20482;-74
2022/12/24 06:43:38;;;;;;;8.93;3.40;;;10.20;99.90;;;;;;4950313;29;20461;-74
2022/12/24 06:46:05;;;;;;;16.63;3.40;;;10.20;99.90;;;;;;4950015;29;20465;-74
2022/12/24 06:48:31;;;;;;;17.00;3.40;;;10.10;99.90;;;;;;4950390;29;20458;-74
2022/12/24 06:50:58;;;;;;;21.67;4.10;;;10.00;99.90;;;;;;4950090;28;20479;-75
2022/12/24 06:53:25;;;;;;;13.50;4.00;;;10.00;99.90;;;;;;4950307;29;21103;-74
2022/12/24 06:55:52;;;;;;;13.07;3.80;;;10.00;99.90;;;;;;4949815;29;20469;-74
2022/12/24 06:58:19;;;;;;;11.63;3.87;;;10.00;99.90;;;;;;4949955;29;20467;-74
2022/12/24 07:00:48;;;;;;;12.70;4.23;;;10.00;99.90;;;;;;4949862;28;20492;-74
2022/12/24 07:03:15;;;;;;;17.67;3.93;;;10.00;99.90;;;;;;4949952;29;21007;-74
2022/12/24 07:05:42;;;;;;;15.63;3.80;;;10.00;99.90;;;;;;4949764;29;20501;-74
2022/12/24 07:08:09;;;;;;;18.30;4.30;;;10.00;99.90;;;;;;4948805;28;21016;-74
2022/12/24 07:10:35;;;;;;;7.60;3.93;;;9.90;99.90;;;;;;4949037;28;20470;-74
2022/12/24 07:13:02;;;;;;;11.83;3.50;;;10.00;99.90;;;;;;4950132;29;20461;-75
2022/12/24 07:15:29;;;;;;;9.20;3.13;;;10.00;99.90;;;;;;4949782;29;20461;-74
2022/12/24 07:17:57;;;;;;;9.53;3.70;;;10.00;99.90;;;;;;4949147;29;20461;-74
2022/12/24 07:20:24;;;;;;;9.50;3.37;;;10.00;99.90;;;;;;4949947;28;20484;-74
2022/12/24 07:22:51;;;;;;;7.90;2.87;;;10.00;99.90;;;;;;4950145;29;20465;-74
2022/12/24 07:25:17;;;;;;;12.27;3.17;;;10.00;99.90;;;;;;4949497;29;20520;-74
2022/12/24 07:27:44;;;;;;;10.23;3.10;;;9.90;99.90;;;;;;4948512;29;20461;-75
2022/12/24 07:30:12;;;;;;;14.03;3.40;;;9.90;99.90;;;;;;4946603;28;20453;-74
2022/12/24 07:32:39;;;;;;;9.00;3.57;;;9.90;99.90;;;;;;4949479;29;20544;-74
2022/12/24 07:35:07;;;;;;;16.03;3.40;;;9.90;99.90;;;;;;4949431;29;20457;-74
2022/12/24 07:37:34;;;;;;;7.10;3.70;;;9.90;99.90;;;;;;4946015;29;20458;-73
2022/12/24 07:40:01;;;;;;;12.87;4.10;;;9.90;99.90;;;;;;4950181;29;20945;-74
2022/12/24 07:42:28;;;;;;;17.30;5.27;;;9.90;99.90;;;;;;4950921;29;20483;-74
2022/12/24 07:44:55;;;;;;;13.47;4.10;;;9.90;99.90;;;;;;4935069;29;20875;-73
2022/12/24 07:47:21;;;;;;;16.23;4.60;;;9.80;99.90;;;;;;4930296;29;20454;-73
2022/12/24 07:49:48;;;;;;;12.47;5.50;;;9.80;99.90;;;;;;4931255;29;20455;-74
2022/12/24 07:52:16;;;;;;;12.83;4.57;;;9.80;99.90;;;;;;4939259;29;20465;-74
2022/12/24 07:54:43;;;;;;;18.58;4.53;;;9.90;99.90;;;;;;4950107;29;20447;-76
2022/12/24 07:57:10;;;;;;;9.93;3.83;;;9.80;99.90;;;;;;4949983;29;20221;-74
2022/12/24 07:59:37;;;;;;;13.87;4.20;;;9.90;99.90;;;;;;4950441;29;21215;-74
2022/12/24 08:02:04;;;;;;;16.77;5.00;;;9.80;99.90;;;;;;4942799;29;20576;-74
2022/12/24 08:04:32;;;;;;;12.70;3.90;;;9.70;99.90;;;;;;4932418;29;20502;-74
2022/12/24 08:06:59;;;;;;;14.87;4.20;;;9.70;99.90;;;;;;4930967;29;20458;-73
2022/12/24 08:09:27;;;;;;;15.53;4.20;;;9.70;99.90;;;;;;4931511;29;20514;-73
2022/12/24 08:11:53;;;;;;;13.80;5.00;;;9.70;99.90;;;;;;4931692;29;20490;-73
2022/12/24 08:14:20;;;;;;;12.50;4.63;;;9.70;99.90;;;;;;4930990;29;20450;-73
2022/12/24 08:16:47;;;;;;;17.70;5.63;;;9.70;99.90;;;;;;4931313;29;20455;-74
2022/12/24 08:19:14;;;;;;;10.80;4.70;;;9.70;99.90;;;;;;4932146;29;20458;-74
2022/12/24 08:21:41;;;;;;;14.40;6.67;;;9.60;99.90;;;;;;4930919;29;20478;-74
2022/12/24 08:24:08;;;;;;;12.00;4.30;;;9.60;99.90;;;;;;4930975;29;20465;-74
2022/12/24 08:26:36;;;;;;;10.97;3.80;;;9.60;99.90;;;;;;4930447;29;20521;-74
2022/12/24 08:29:03;;;;;;;21.57;4.90;;;9.60;99.90;;;;;;4931689;29;20605;-73
2022/12/24 08:31:35;;;;;;;11.37;3.90;;;9.60;99.90;;;;;;4930883;29;20482;-73
2022/12/24 08:34:02;;;;;;;9.87;4.10;;;9.60;99.90;;;;;;4930523;29;20462;-73
2022/12/24 08:36:28;;;;;;;11.77;3.83;;;9.60;99.90;;;;;;4932473;29;20461;-74
2022/12/24 08:38:55;;;;;;;7.60;3.37;;;9.60;99.90;;;;;;4938739;29;20447;-74
2022/12/24 08:41:22;;;;;;;15.53;3.30;;;9.60;99.90;;;;;;4944286;29;20508;-74
2022/12/24 08:43:50;;;;;;;8.70;3.27;;;9.70;99.90;;;;;;4943408;29;20468;-74
2022/12/24 08:46:17;;;;;;;11.73;3.40;;;9.60;99.90;;;;;;4935954;29;20557;-74
2022/12/24 08:48:44;;;;;;;12.33;4.00;;;9.70;99.90;;;;;;4940812;29;20451;-74
2022/12/24 08:51:12;;;;;;;13.90;3.97;;;9.70;99.90;;;;;;4935968;29;20506;-74
2022/12/24 08:53:39;;;;;;;8.13;3.23;;;9.70;99.90;;;;;;4943691;29;20450;-74
2022/12/24 08:56:09;;;;;;;12.03;3.50;;;9.70;99.90;;;;;;4936440;29;20460;-75
2022/12/24 08:58:36;;;;;;;12.77;4.00;;;9.80;99.90;;;;;;4939799;29;20450;-73
2022/12/24 09:01:10;;;;;;;13.80;3.20;;;9.80;99.90;;;;;;4946357;29;21293;-74
2022/12/24 09:03:37;;;;;;;11.93;3.90;;;9.80;99.90;;;;;;4948378;29;20464;-74
2022/12/24 09:06:05;;;;;;;8.67;3.23;;;9.80;99.90;;;;;;4930733;29;20505;-74
2022/12/24 09:08:32;;;;;;;8.77;3.40;;;9.80;99.90;;;;;;4928455;29;20458;-73
2022/12/24 09:11:03;;;;;;;11.70;3.37;;;9.80;99.90;;;;;;4928618;29;20482;-74
2022/12/24 09:13:30;;;;;;;16.53;4.10;;;9.80;99.90;;;;;;4928344;29;20458;-74
2022/12/24 09:15:57;;;;;;;11.90;3.60;;;9.80;99.90;;;;;;4927677;29;20465;-74
2022/12/24 09:18:25;;;;;;;13.80;4.20;;;9.90;99.90;;;;;;4927187;29;20465;-75
2022/12/24 09:20:52;;;;;;;10.73;3.70;;;9.90;99.90;;;;;;4927477;29;20466;-75
2022/12/24 09:23:19;;;;;;;11.63;3.70;;;9.90;99.90;;;;;;4927661;29;20517;-75
2022/12/24 09:25:45;;;;;;;11.93;3.67;;;9.90;99.90;;;;;;4927082;29;20594;-74
2022/12/24 09:28:12;;;;;;;7.43;2.93;;;10.00;99.90;;;;;;4927613;29;20963;-74
2022/12/24 09:30:39;;;;;;;13.90;4.23;;;10.00;99.90;;;;;;4934969;29;20476;-74
2022/12/24 09:33:06;;;;;;;12.13;3.37;;;9.90;99.90;;;;;;4935845;29;20481;-74
2022/12/24 09:35:34;;;;;;;8.73;2.90;;;10.00;99.90;;;;;;4934809;29;20553;-74
2022/12/24 09:38:02;;;;;;;16.40;4.30;;;10.00;99.90;;;;;;4926594;29;21046;-74
2022/12/24 09:40:37;;;;;;;10.03;3.40;;;10.00;99.90;;;;;;4927367;29;20461;-74
2022/12/24 09:43:11;;;;;;;7.03;2.83;;;10.10;99.90;;;;;;4927475;29;20447;-74
2022/12/24 09:45:41;;;;;;;12.50;2.70;;;10.20;99.90;;;;;;4932568;29;20500;-74
2022/12/24 09:48:14;;;;;;;11.50;3.50;;;10.20;99.90;;;;;;4945049;29;20464;-74
2022/12/24 09:50:49;;;;;;;8.63;3.23;;;10.30;99.90;;;;;;4945921;28;20473;-75
2022/12/24 09:53:21;;;;;;;9.37;3.10;;;10.40;99.90;;;;;;4946188;29;20465;-74
2022/12/24 09:55:50;;;;;;;15.90;3.80;;;10.40;99.90;;;;;;4946156;29;20871;-74
2022/12/24 09:58:23;;;;;;;11.87;3.33;;;10.60;99.90;;;;;;4945814;29;21180;-74
2022/12/24 10:00:51;;;;;;;14.63;3.57;;;10.60;99.90;;;;;;4946140;29;20477;-74
2022/12/24 10:03:18;;;;;;;11.53;3.30;;;10.70;99.90;;;;;;4946234;29;20453;-74
2022/12/24 10:05:55;;;;;;;9.43;3.80;;;10.90;99.90;;;;;;4933250;29;20771;-75
2022/12/24 10:08:30;;;;;;;14.50;3.63;;;11.00;99.90;;;;;;4927247;29;20447;-74
2022/12/24 10:11:05;;;;;;;9.40;3.50;;;11.10;99.90;;;;;;4926883;29;21005;-74
2022/12/24 10:13:46;;;;;;;5.17;3.00;;;11.20;99.90;;;;;;4928028;29;20457;-74
2022/12/24 10:16:22;;;;;;;6.77;2.83;;;11.30;99.90;;;;;;4927157;29;20459;-74
2022/12/24 10:18:57;;;;;;;12.93;3.50;;;11.40;99.90;;;;;;4928497;29;20449;-74
2022/12/24 10:21:35;;;;;;;17.53;3.30;;;11.40;99.90;;;;;;4927491;29;20484;-74
2022/12/24 10:24:07;;;;;;;9.77;2.83;;;11.50;99.90;;;;;;4928047;29;20442;-72
2022/12/24 10:26:41;;;;;;;9.90;3.23;;;11.50;99.90;;;;;;4927157;29;21058;-72
2022/12/24 10:29:15;;;;;;;11.17;2.73;;;11.50;99.90;;;;;;4928410;29;20439;-73
2022/12/24 10:31:49;;;;;;;11.60;3.23;;;11.60;99.90;;;;;;4928089;29;20481;-73
2022/12/24 10:34:22;;;;;;;14.30;4.33;;;11.60;99.90;;;;;;4928529;29;20981;-73
2022/12/24 10:36:50;;;;;;;13.63;4.43;;;11.60;99.90;;;;;;4937163;29;20869;-73
2022/12/24 10:39:19;;;;;;;17.53;3.77;;;11.60;99.90;;;;;;4946946;28;20461;-73
2022/12/24 10:41:48;;;;;;;20.20;3.70;;;11.60;99.90;;;;;;4946831;29;20485;-72
2022/12/24 10:44:18;;;;;;;12.60;3.67;;;11.60;99.90;;;;;;4949115;28;20454;-73
2022/12/24 10:46:46;;;;;;;10.10;3.03;;;11.60;99.90;;;;;;4949406;29;20488;-72
2022/12/24 10:49:15;;;;;;;15.23;3.75;;;11.50;99.90;;;;;;4937063;29;20452;-73
2022/12/24 10:51:47;;;;;;;10.37;3.17;;;11.80;99.90;;;;;;4947563;28;20234;-73
2022/12/24 10:54:17;;;;;;;9.80;3.23;;;11.80;99.90;;;;;;4949038;29;20530;-73
2022/12/24 10:56:49;;;;;;;11.67;3.57;;;11.70;99.90;;;;;;4937910;29;20786;-74
2022/12/24 10:59:27;;;;;;;17.10;3.97;;;11.80;99.90;;;;;;4939213;29;20453;-74
2022/12/24 11:01:56;;;;;;;9.30;4.10;;;11.70;99.90;;;;;;4949351;28;20500;-78
2022/12/24 11:04:25;;;;;;;10.40;3.47;;;11.70;99.90;;;;;;4950150;29;20461;-73
2022/12/24 11:06:54;;;;;;;18.70;5.07;;;11.60;99.90;;;;;;4956018;28;20501;-76
2022/12/24 11:09:26;;;;;;;14.73;4.23;;;11.60;99.90;;;;;;4945350;28;20446;-75
2022/12/24 11:11:54;;;;;;;12.30;4.40;;;11.60;99.90;;;;;;4945033;28;20477;-74
2022/12/24 11:14:24;;;;;;;16.53;3.57;;;11.60;99.90;;;;;;4948932;29;21063;-74
2022/12/24 11:16:53;;;;;;;15.63;4.30;;;11.50;99.90;;;;;;4948107;28;20450;-74
2022/12/24 11:19:27;;;;;;;15.00;3.67;;;11.60;99.90;;;;;;4955361;28;20450;-74
2022/12/24 11:22:00;;;;;;;15.93;4.13;;;11.60;99.90;;;;;;4948314;28;20939;-75
2022/12/24 11:24:31;;;;;;;8.03;3.90;;;11.60;99.90;;;;;;4948599;29;20437;-74
2022/12/24 11:27:24;;;;;;;14.13;3.60;;;11.50;99.90;;;;;;4947774;29;20985;-74
2022/12/24 11:29:51;;;;;;;17.77;3.73;;;11.50;99.90;;;;;;4948420;29;20496;-74
2022/12/24 11:32:20;;;;;;;14.30;3.53;;;11.50;99.90;;;;;;4948425;28;20481;-74
2022/12/24 11:34:47;;;;;;;16.00;4.37;;;11.50;99.90;;;;;;4948351;29;20461;-72
2022/12/24 11:37:18;;;;;;;11.13;3.53;;;11.50;99.90;;;;;;4947481;29;20457;-74
2022/12/24 11:39:49;;;;;;;20.20;4.90;;;11.50;99.90;;;;;;4945335;28;20453;-75
2022/12/24 11:42:32;;;;;;;15.77;4.40;;;11.50;99.90;;;;;;4945499;28;20473;-74
2022/12/24 11:45:01;;;;;;;13.50;4.73;;;11.50;99.90;;;;;;4944154;28;20473;-74
2022/12/24 11:47:34;;;;;;;10.83;3.87;;;11.50;99.90;;;;;;4941567;29;20460;-73
2022/12/24 11:50:23;;;;;;;13.50;3.77;;;11.50;99.90;;;;;;4948251;29;20460;-73
2022/12/24 11:52:56;;;;;;;19.33;4.03;;;11.50;99.90;;;;;;4947729;29;20465;-74
2022/12/24 11:55:36;;;;;;;13.10;4.23;;;11.40;99.90;;;;;;4942448;28;20449;-74
2022/12/24 11:58:12;;;;;;;11.00;4.50;;;11.30;99.90;;;;;;4947409;29;20488;-74
2022/12/24 12:00:40;;;;;;;22.00;4.63;;;11.30;99.90;;;;;;4947735;29;20493;-74
2022/12/24 12:03:27;;;;;;;23.40;4.30;;;11.20;99.90;;;;;;4929865;29;20811;-74
2022/12/24 12:05:55;;;;;;;21.30;5.07;;;11.20;99.90;;;;;;4928301;29;20498;-74
2022/12/24 12:08:23;;;;;;;14.63;5.37;;;11.10;99.90;;;;;;4928934;29;20474;-74
2022/12/24 12:10:53;;;;;;;25.23;4.90;;;11.10;99.90;;;;;;4941025;29;21049;-75
2022/12/24 12:13:31;;;;;;;20.73;4.37;;;11.10;99.90;;;;;;4938250;29;20530;-75
2022/12/24 12:16:07;;;;;;;23.07;5.30;;;11.10;99.90;;;;;;4927405;29;20454;-75
2022/12/24 12:18:36;;;;;;;16.57;5.10;;;11.20;99.90;;;;;;4931080;29;20466;-75
2022/12/24 12:21:06;;;;;;;14.67;4.33;;;11.20;99.90;;;;;;4928522;29;20474;-74
2022/12/24 12:23:35;;;;;;;21.37;5.17;;;11.30;99.90;;;;;;4945003;29;20460;-76
2022/12/24 12:26:10;;;;;;;13.10;4.20;;;11.30;99.90;;;;;;4944892;29;21064;-74
2022/12/24 12:28:41;;;;;;;17.20;4.17;;;11.30;99.90;;;;;;4927995;29;20462;-74
2022/12/24 12:31:16;;;;;;;17.27;4.73;;;11.30;99.90;;;;;;4930748;29;20484;-74
2022/12/24 12:33:48;;;;;;;13.60;3.80;;;11.30;99.90;;;;;;4928163;29;20937;-74
2022/12/24 12:36:19;;;;;;;12.93;4.23;;;11.30;99.90;;;;;;4927672;29;20457;-75
2022/12/24 12:38:46;;;;;;;17.80;4.20;;;11.30;99.90;;;;;;4928168;29;20450;-75
2022/12/24 12:41:34;;;;;;;18.70;4.67;;;11.30;99.90;;;;;;4927921;29;20476;-75
2022/12/24 12:44:21;;;;;;;19.13;4.60;;;11.20;99.90;;;;;;4930925;29;20438;-76
2022/12/24 12:47:01;;;;;;;38.63;6.30;;;11.10;99.90;;;;;;4927549;29;20493;-77
2022/12/24 12:49:37;;;;;;;16.60;4.97;;;11.10;99.90;;;;;;4928278;29;20485;-64
2022/12/24 12:52:15;;;;;;;26.47;4.30;;;11.00;99.90;;;;;;4928684;29;20478;-73
2022/12/24 12:54:53;;;;;;;27.30;3.80;;;10.90;99.90;;;;;;4928710;29;20442;-73
2022/12/24 12:57:27;;;;;;;18.00;3.80;;;10.90;99.90;;;;;;4932294;29;20923;-77
2022/12/24 12:59:59;;;;;;;20.13;3.90;;;10.90;99.90;;;;;;4929504;29;21014;-74
2022/12/24 13:02:48;;;;;;;14.17;4.30;;;10.90;99.90;;;;;;4928689;29;20494;-74
2022/12/24 13:05:40;;;;;;;11.03;4.23;;;10.90;99.90;;;;;;4928702;29;20443;-74
2022/12/24 13:08:22;;;;;;;18.37;4.37;;;11.00;99.90;;;;;;4927150;29;20462;-74
2022/12/24 13:11:12;;;;;;;12.87;3.87;;;11.00;99.90;;;;;;4929072;29;20478;-74
2022/12/24 13:13:59;;;;;;;18.37;5.30;;;11.00;99.90;;;;;;4928678;29;21318;-74
2022/12/24 13:16:59;;;;;;;23.70;9.90;;;11.00;99.90;;;;;;4928010;29;20435;-74
2022/12/24 13:19:42;;;;;;;20.70;6.20;;;11.00;99.90;;;;;;4928474;29;20465;-76
2022/12/24 13:22:15;;;;;;;33.73;12.53;;;11.10;99.90;;;;;;4938961;29;20473;-74
2022/12/24 13:24:49;;;;;;;29.10;6.70;;;11.10;99.90;;;;;;4947751;29;20864;-74
2022/12/24 13:27:19;;;;;;;17.13;4.73;;;11.10;99.90;;;;;;4946766;29;20497;-74
2022/12/24 13:29:54;;;;;;;28.53;5.50;;;11.20;99.90;;;;;;4938112;29;20458;-74
2022/12/24 13:32:48;;;;;;;18.53;5.30;;;11.20;99.90;;;;;;4928601;29;20525;-74
2022/12/24 13:35:35;;;;;;;15.33;4.37;;;11.30;99.90;;;;;;4933293;29;20506;-74
2022/12/24 13:38:30;;;;;;;17.47;4.87;;;11.30;99.90;;;;;;4943243;29;20463;-74
2022/12/24 13:41:37;;;;;;;20.57;5.10;;;11.40;99.90;;;;;;4935285;29;20906;-74
2022/12/24 13:44:15;;;;;;;20.67;5.20;;;11.40;99.90;;;;;;4928487;29;20461;-74
2022/12/24 13:46:58;;;;;;;17.13;5.77;;;11.40;99.90;;;;;;4940460;29;20497;-74
2022/12/24 13:49:35;;;;;;;17.07;4.57;;;11.40;99.90;;;;;;4930601;29;20446;-74
2022/12/24 13:52:17;;;;;;;24.83;7.93;;;11.50;99.90;;;;;;4928103;29;20501;-73
2022/12/24 13:54:49;;;;;;;22.63;8.50;;;11.50;99.90;;;;;;4928074;29;20833;-74
2022/12/24 13:57:31;;;;;;;21.90;7.90;;;11.50;99.90;;;;;;4927627;29;20454;-74
2022/12/24 14:00:02;;;;;;;19.10;5.60;;;11.50;99.90;;;;;;4928253;29;20552;-74
2022/12/24 14:02:35;;;;;;;19.77;5.37;;;11.50;99.90;;;;;;4927502;29;21154;-74
2022/12/24 14:05:07;;;;;;;15.30;4.90;;;11.50;99.90;;;;;;4928133;29;20462;-74
2022/12/24 14:07:35;;;;;;;16.90;4.53;;;11.50;99.90;;;;;;4932174;29;21291;-74
2022/12/24 14:10:05;;;;;;;15.17;4.50;;;11.50;99.90;;;;;;4942069;29;20453;-77
2022/12/24 14:12:48;;;;;;;11.90;4.33;;;11.50;99.90;;;;;;4946639;29;20556;-75
2022/12/24 14:15:46;;;;;;;17.30;5.70;;;11.50;99.90;;;;;;4945193;29;20472;-74
2022/12/24 14:18:19;;;;;;;24.50;5.57;;;11.40;99.90;;;;;;4926815;28;20461;-74
2022/12/24 14:20:49;;;;;;;21.80;7.13;;;11.40;99.90;;;;;;4944284;29;20469;-74
2022/12/24 14:23:27;;;;;;;22.33;9.50;;;11.40;99.90;;;;;;4935117;29;20461;-74
2022/12/24 14:25:53;;;;;;;24.80;8.80;;;11.40;99.90;;;;;;4945565;29;20456;-74
2022/12/24 14:28:29;;;;;;;30.00;9.80;;;11.40;99.90;;;;;;4936342;29;20458;-74
2022/12/24 14:31:01;;;;;;;18.27;6.37;;;11.30;99.90;;;;;;4931320;29;20493;-74
2022/12/24 14:33:35;;;;;;;14.83;6.43;;;11.30;99.90;;;;;;4929704;29;20509;-74
2022/12/24 14:36:03;;;;;;;16.93;6.23;;;11.30;99.90;;;;;;4931120;29;20462;-74
2022/12/24 14:38:30;;;;;;;24.33;6.70;;;11.30;99.90;;;;;;4931180;29;20450;-74
2022/12/24 14:41:07;;;;;;;15.70;6.07;;;11.30;99.90;;;;;;4931358;28;20470;-74
2022/12/24 14:43:53;;;;;;;19.33;6.87;;;11.30;99.90;;;;;;4950216;29;21037;-74
2022/12/24 14:46:26;;;;;;;25.43;6.37;;;11.20;99.90;;;;;;4936047;29;20498;-73
2022/12/24 14:48:57;;;;;;;18.40;5.80;;;11.20;99.90;;;;;;4930026;29;20469;-73
2022/12/24 14:51:34;;;;;;;14.20;5.50;;;11.20;99.90;;;;;;4930723;29;20486;-72
2022/12/24 14:54:25;;;;;;;20.10;6.40;;;11.10;99.90;;;;;;4931117;29;20947;-74
2022/12/24 14:57:11;;;;;;;15.97;6.07;;;11.10;99.90;;;;;;4930521;29;20468;-74
2022/12/24 14:59:42;;;;;;;21.77;6.30;;;11.10;99.90;;;;;;4930568;29;20458;-74
2022/12/24 15:02:37;;;;;;;12.43;5.10;;;11.10;99.90;;;;;;4930494;29;20489;-74
2022/12/24 15:05:11;;;;;;;18.10;6.70;;;11.00;99.90;;;;;;4931098;29;21249;-74
2022/12/24 15:07:42;;;;;;;17.47;7.00;;;11.00;99.90;;;;;;4930222;29;20485;-74
2022/12/24 15:10:26;;;;;;;20.67;7.30;;;11.00;99.90;;;;;;4930903;29;20461;-74
2022/12/24 15:12:54;;;;;;;17.67;6.17;;;11.00;99.90;;;;;;4931119;29;20450;-74
2022/12/24 15:15:21;;;;;;;16.73;6.07;;;10.90;99.90;;;;;;4930599;29;20454;-74
2022/12/24 15:17:48;;;;;;;27.93;7.13;;;10.90;99.90;;;;;;4930250;29;20454;-74
2022/12/24 15:20:20;;;;;;;15.27;8.23;;;10.90;99.90;;;;;;4930291;29;20454;-74
2022/12/24 15:22:51;;;;;;;20.53;7.30;;;10.80;99.90;;;;;;4930425;29;20804;-74
2022/12/24 15:25:21;;;;;;;18.13;6.70;;;10.80;99.90;;;;;;4930554;29;20834;-74
2022/12/24 15:27:48;;;;;;;18.10;6.13;;;10.80;99.90;;;;;;4929533;29;21090;-74
2022/12/24 15:30:19;;;;;;;16.60;6.37;;;10.70;99.90;;;;;;4929403;29;20458;-74
2022/12/24 15:32:46;;;;;;;26.47;8.10;;;10.70;99.90;;;;;;4930848;29;20435;-74
2022/12/24 15:35:49;;;;;;;16.10;6.47;;;10.70;99.90;;;;;;4930428;29;20820;-74
2022/12/24 15:38:29;;;;;;;19.77;6.70;;;10.70;99.90;;;;;;4930353;29;20509;-74
2022/12/24 15:40:56;;;;;;;19.03;6.03;;;10.60;99.90;;;;;;4947927;28;20476;-74
2022/12/24 15:43:25;;;;;;;25.67;9.73;;;10.60;99.90;;;;;;4949687;29;20458;-74
2022/12/24 15:45:52;;;;;;;30.57;17.17;;;10.60;99.90;;;;;;4948225;29;20840;-74
2022/12/24 15:48:23;;;;;;;36.67;18.33;;;10.80;99.90;;;;;;4949149;29;20493;-74
2022/12/24 15:50:53;;;;;;;30.13;14.87;;;10.80;99.90;;;;;;4949036;28;20478;-74
2022/12/24 15:53:25;;;;;;;32.60;13.97;;;10.80;99.90;;;;;;4949164;29;20954;-74
2022/12/24 15:56:07;;;;;;;29.70;15.40;;;10.70;99.90;;;;;;4948575;29;20529;-74
2022/12/24 15:58:36;;;;;;;28.73;13.80;;;10.70;99.90;;;;;;4948885;29;20456;-74
2022/12/24 16:01:06;;;;;;;31.17;16.80;;;10.60;99.90;;;;;;4948401;28;20493;-74
2022/12/24 16:03:33;;;;;;;29.93;15.07;;;10.50;99.90;;;;;;4949050;29;20464;-73
2022/12/24 16:06:03;;;;;;;26.90;14.27;;;10.50;99.90;;;;;;4948299;29;20465;-72
2022/12/24 16:08:32;;;;;;;28.63;14.20;;;10.50;99.90;;;;;;4949221;29;20497;-74
2022/12/24 16:11:18;;;;;;;26.87;14.90;;;10.40;99.90;;;;;;4948551;28;20484;-73
2022/12/24 16:13:59;;;;;;;28.93;12.30;;;10.40;99.90;;;;;;4948647;29;20528;-73
2022/12/24 16:16:33;;;;;;;28.33;12.20;;;10.30;99.90;;;;;;4947960;29;20461;-72
2022/12/24 16:19:01;;;;;;;22.23;11.90;;;10.30;99.90;;;;;;4948738;29;20438;-73
2022/12/24 16:21:32;;;;;;;32.03;11.30;;;10.30;99.90;;;;;;4948195;28;20985;-73
2022/12/24 16:24:06;;;;;;;25.50;11.77;;;10.30;99.90;;;;;;4948234;29;20465;-73
2022/12/24 16:26:33;;;;;;;24.20;9.97;;;10.30;99.90;;;;;;4947806;29;20461;-73
2022/12/24 16:29:00;;;;;;;23.70;8.33;;;10.30;99.90;;;;;;4947338;29;20458;-73
2022/12/24 16:31:32;;;;;;;25.23;10.90;;;10.30;99.90;;;;;;4948198;28;20473;-72
2022/12/24 16:34:02;;;;;;;27.20;15.93;;;10.30;99.90;;;;;;4948325;29;20460;-72
2022/12/24 16:36:31;;;;;;;36.10;15.77;;;10.30;99.90;;;;;;4947434;29;20453;-73
2022/12/24 16:44:27;;;;;;;20.20;11.37;;;10.30;99.90;;;;;;4948283;29;20522;-73
2022/12/24 16:46:55;;;;;;;27.50;14.40;;;10.30;99.90;;;;;;4947191;29;20520;-73
2022/12/24 16:49:23;;;;;;;25.97;13.40;;;10.20;99.90;;;;;;4948053;29;20469;-72
2022/12/24 16:51:51;;;;;;;22.63;12.23;;;10.20;99.90;;;;;;4945059;28;20476;-71
2022/12/24 16:54:18;;;;;;;14.57;8.20;;;10.20;99.90;;;;;;4931287;29;20822;-73
2022/12/24 16:56:45;;;;;;;12.50;8.50;;;10.20;99.90;;;;;;4927923;29;20459;-74
2022/12/24 16:59:16;;;;;;;17.43;10.63;;;10.10;99.90;;;;;;4928711;29;20466;-76
2022/12/24 17:01:42;;;;;;;16.70;11.83;;;10.10;99.90;;;;;;4928383;29;20486;-75
2022/12/24 17:04:09;;;;;;;15.70;11.03;;;10.10;99.90;;;;;;4929719;29;20462;-76
2022/12/24 17:06:36;;;;;;;17.33;11.20;;;10.10;99.90;;;;;;4929243;29;20468;-79
2022/12/24 17:09:05;;;;;;;23.80;13.53;;;10.10;99.90;;;;;;4934305;29;20505;-77
2022/12/24 17:11:32;;;;;;;26.17;17.07;;;10.10;99.90;;;;;;4944837;29;20478;-81
2022/12/24 17:13:59;;;;;;;37.53;17.83;;;10.10;99.90;;;;;;4931766;29;20469;-81
2022/12/24 17:16:26;;;;;;;28.13;16.03;;;10.10;99.90;;;;;;4931429;29;20842;-80
2022/12/24 17:18:52;;;;;;;21.80;12.60;;;10.10;99.90;;;;;;4931417;29;20443;-80
2022/12/24 17:21:19;;;;;;;21.83;13.47;;;10.10;99.90;;;;;;4940596;29;20480;-77
2022/12/24 17:23:46;;;;;;;23.97;14.30;;;10.10;99.90;;;;;;4943734;29;20457;-74
2022/12/24 17:26:15;;;;;;;25.37;16.50;;;10.00;99.90;;;;;;4947363;29;20457;-75
2022/12/24 17:28:42;;;;;;;33.33;20.80;;;10.00;99.90;;;;;;4950032;29;20501;-77
2022/12/24 17:31:10;;;;;;;36.63;22.37;;;10.00;99.90;;;;;;4948833;28;20477;-76
2022/12/24 17:33:37;;;;;;;35.93;22.80;;;9.90;99.90;;;;;;4951386;29;20457;-81
2022/12/24 17:36:05;;;;;;;39.30;20.90;;;9.90;99.90;;;;;;4952583;29;20457;-81
2022/12/24 17:38:32;;;;;;;33.20;20.53;;;9.90;99.90;;;;;;4954692;29;20453;-81
2022/12/24 17:41:02;;;;;;;30.10;19.93;;;9.90;99.90;;;;;;4941047;29;20501;-78
2022/12/24 17:43:30;;;;;;;33.30;19.07;;;9.90;99.90;;;;;;4949766;29;20454;-79
2022/12/24 17:45:57;;;;;;;31.70;16.27;;;9.90;99.90;;;;;;4949471;29;20973;-79
2022/12/24 17:48:24;;;;;;;23.67;14.97;;;9.90;99.90;;;;;;4944550;29;20505;-75
2022/12/24 17:50:51;;;;;;;24.67;15.10;;;9.90;99.90;;;;;;4939577;29;21086;-76
2022/12/24 17:53:18;;;;;;;26.07;15.23;;;9.90;99.90;;;;;;4941320;29;20443;-82
2022/12/24 17:55:45;;;;;;;22.83;16.50;;;9.80;99.90;;;;;;4936505;29;20468;-76
2022/12/24 17:58:13;;;;;;;21.30;14.93;;;9.80;99.90;;;;;;4936158;29;20501;-79
2022/12/24 18:00:42;;;;;;;21.13;14.13;;;9.80;99.90;;;;;;4942385;29;20582;-78
2022/12/24 18:03:13;;;;;;;26.90;15.60;;;9.80;99.90;;;;;;4952920;29;20445;-80
2022/12/24 18:05:40;;;;;;;22.20;14.33;;;9.80;99.90;;;;;;4950386;29;20817;-77
2022/12/24 18:08:06;;;;;;;22.17;12.40;;;9.80;99.90;;;;;;4948083;29;20890;-80
2022/12/24 18:10:33;;;;;;;20.43;13.77;;;9.70;99.90;;;;;;4951715;29;20465;-79